Etusivu
METAR-TAF:

METAR-TAF

Lentoasemat :

Gran Canarian lentoasema

Gran Canaria, Espanja

Leveyspiiri: 27-56N, Pituuspiiri: 015-23W, korkeus merenpinnasta: 23 m

Tämänhetkinen sää

Tämä raportti tehtiin 32 minuuttia sitten, kello 20.30 UTC
Tuuli 15 kn pohjoisesta/koillisesta
Lämpötila 23°C
Kosteus 78%
Ilmanpaine 1016 hPa
Näkyvyys 10 km tai enemmän
Muutamia pilviä 2500 ft:n korkeudessa

METAR: GCLP 182030Z 02015KT 9999 FEW025 23/19 Q1016 NOSIG

Aika: 22:02 (21:02 UTC)

Sääennuste

Tämä raportti tehtiin 1 tunti ja 2 minuuttia sitten, kello 20.00 UTC
Ennuste voimassa 18. päivästä klo 21 UTC - 19. päivään klo 21 UTC
Tuuli 12 kn pohjoisesta
Näkyvyys 10 km tai enemmän
Hajanaisia pilviä 2500 ft:n korkeudessa

TAF: GCLP 182000Z 1821/1921 36012KT 9999 SCT025 TX29/1914Z TN24/1905Z

Säähavainnot ja -ennusteet yli 4000 lentoasemalta (METAR- ja TAF-raportit).

Käytössä olevat sääasemat on merkitty karttaan keltaisilla ja punaisilla pisteillä.

Aseta hiiri pisteen päälle nähdäksesi sääaseman nimen.

Klikkaa sitten nähdäksesi säähavainnot ja -ennusteet.

Kartan vaihtaminen: klikkaa mustalla rastilla varustettuja vihreitä pisteitä, niin voit zoomata sisään; viivalla varustettua vihreää pistettä, niin voit zoomata ulos tai vihreitä nuolia, niin pääset viereisille kartoille.


METAR-TAF: